createdAt,value
2022-12-27T00:01:45.457Z,96940.44
2022-12-27T00:04:13.748Z,96951.03
2022-12-27T00:06:42.253Z,96946.56
2022-12-27T00:09:10.987Z,96952.34
2022-12-27T00:11:39.826Z,96951.66
2022-12-27T00:14:08.400Z,96957.44
2022-12-27T00:16:38.699Z,96961.22
2022-12-27T00:19:07.226Z,96963.25
2022-12-27T00:21:36.602Z,96964.50
2022-12-27T00:24:05.269Z,96975.50
2022-12-27T00:26:34.752Z,96971.47
2022-12-27T00:29:03.152Z,96985.13
2022-12-27T00:31:32.586Z,97004.16
2022-12-27T00:34:04.098Z,97007.47
2022-12-27T00:36:32.900Z,97004.97
2022-12-27T00:39:01.964Z,97005.09
2022-12-27T00:41:30.295Z,96998.75
2022-12-27T00:43:58.511Z,97008.16
2022-12-27T00:46:26.769Z,97021.31
2022-12-27T00:48:55.415Z,97013.06
2022-12-27T00:51:26.331Z,97015.69
2022-12-27T00:53:54.844Z,97012.41
2022-12-27T00:56:25.581Z,97017.53
2022-12-27T00:58:55.183Z,97020.50
2022-12-27T01:01:24.677Z,97026.50
2022-12-27T01:03:53.371Z,97031.09
2022-12-27T01:06:23.353Z,97033.16
2022-12-27T01:08:53.101Z,97040.81
2022-12-27T01:11:21.428Z,97045.91
2022-12-27T01:13:49.936Z,97042.53
2022-12-27T01:16:20.296Z,97051.38
2022-12-27T01:18:49.303Z,97052.53
2022-12-27T01:21:19.623Z,97048.44
2022-12-27T01:23:48.190Z,97057.47
2022-12-27T01:26:19.659Z,97056.19
2022-12-27T01:28:48.556Z,97067.31
2022-12-27T01:31:19.008Z,97080.22
2022-12-27T01:33:47.449Z,97080.84
2022-12-27T01:36:25.093Z,97094.81
2022-12-27T01:38:53.656Z,97094.84
2022-12-27T01:41:42.859Z,97094.75
2022-12-27T01:44:50.238Z,97100.03
2022-12-27T01:47:23.119Z,97109.44
2022-12-27T01:49:57.651Z,97114.81
2022-12-27T01:52:28.173Z,97113.97
2022-12-27T01:55:00.005Z,97116.47
2022-12-27T01:57:29.951Z,97116.16
2022-12-27T01:59:58.313Z,97113.22
2022-12-27T02:02:26.822Z,97126.72
2022-12-27T02:04:55.447Z,97124.94
2022-12-27T02:07:26.412Z,97132.97
2022-12-27T02:09:58.163Z,97136.69
2022-12-27T02:12:26.856Z,97133.09
2022-12-27T02:14:56.467Z,97138.09
2022-12-27T02:17:27.892Z,97142.09
2022-12-27T02:20:01.348Z,97148.53
2022-12-27T02:23:15.695Z,97155.44
2022-12-27T02:26:09.071Z,97162.06
2022-12-27T02:28:53.049Z,97158.31
2022-12-27T02:31:28.650Z,97161.91
2022-12-27T02:33:58.640Z,97154.63
2022-12-27T02:36:29.190Z,97153.94
2022-12-27T02:38:59.194Z,97148.53
2022-12-27T02:41:46.156Z,97148.66
2022-12-27T02:44:34.053Z,97156.59
2022-12-27T02:47:19.992Z,97156.44
2022-12-27T02:50:05.980Z,97149.88
2022-12-27T02:52:59.626Z,97165.91
2022-12-27T02:55:35.950Z,97162.81
2022-12-27T02:58:20.240Z,97156.97
2022-12-27T03:01:18.287Z,97163.28
2022-12-27T03:03:57.012Z,97164.56
2022-12-27T03:06:49.929Z,97160.25
2022-12-27T03:09:51.309Z,97176.00
2022-12-27T03:12:43.412Z,97173.13
2022-12-27T03:15:44.712Z,97175.31
2022-12-27T03:18:18.301Z,97189.09
2022-12-27T03:21:05.800Z,97195.44
2022-12-27T03:23:52.279Z,97184.97
2022-12-27T03:26:21.105Z,97202.19
2022-12-27T03:29:08.227Z,97211.47
2022-12-27T03:31:57.200Z,97221.06
2022-12-27T03:34:32.898Z,97241.31
2022-12-27T03:37:20.830Z,97239.66
2022-12-27T03:39:53.232Z,97244.22
2022-12-27T03:42:42.697Z,97258.81
2022-12-27T03:45:11.366Z,97270.06
2022-12-27T03:47:43.803Z,97276.31
2022-12-27T03:50:17.740Z,97279.91
2022-12-27T03:52:49.201Z,97285.97
2022-12-27T03:55:18.311Z,97301.13
2022-12-27T03:57:46.633Z,97305.22
2022-12-27T04:00:15.701Z,97308.88
2022-12-27T04:02:44.611Z,97309.88
2022-12-27T04:05:14.308Z,97317.06
2022-12-27T04:08:00.261Z,97325.31
2022-12-27T04:10:46.453Z,97328.88
2022-12-27T04:13:32.349Z,97330.56
2022-12-27T04:16:18.271Z,97343.06
2022-12-27T04:19:04.191Z,97343.63
2022-12-27T04:21:51.373Z,97352.56
2022-12-27T04:24:37.276Z,97363.84
2022-12-27T04:27:23.295Z,97368.66
2022-12-27T04:30:09.210Z,97372.94
2022-12-27T04:32:55.071Z,97375.16
2022-12-27T04:35:23.429Z,97379.03
2022-12-27T04:37:53.140Z,97373.41
2022-12-27T04:40:39.056Z,97379.50
2022-12-27T04:43:25.008Z,97376.84
2022-12-27T04:46:11.038Z,97382.75
2022-12-27T04:48:56.809Z,97380.66
2022-12-27T04:51:42.730Z,97383.28
2022-12-27T04:54:34.154Z,97390.53
2022-12-27T04:57:02.453Z,97387.88
2022-12-27T04:59:48.299Z,97395.78
2022-12-27T05:02:17.018Z,97394.81
2022-12-27T05:04:45.882Z,97396.66
2022-12-27T05:07:32.460Z,97410.53
2022-12-27T05:10:22.178Z,97411.03
2022-12-27T05:13:08.123Z,97418.94
2022-12-27T05:15:36.411Z,97415.31
2022-12-27T05:18:04.966Z,97421.59
2022-12-27T05:20:34.825Z,97412.97
2022-12-27T05:23:20.873Z,97421.72
2022-12-27T05:25:50.602Z,97426.69
2022-12-27T05:28:18.869Z,97422.28
2022-12-27T05:30:47.140Z,97428.72
2022-12-27T05:33:15.485Z,97424.81
2022-12-27T05:35:43.948Z,97431.75
2022-12-27T05:38:12.198Z,97428.03
2022-12-27T05:40:40.486Z,97436.31
2022-12-27T05:43:10.097Z,97439.91
2022-12-27T05:45:38.364Z,97446.13
2022-12-27T05:48:07.129Z,97444.84
2022-12-27T05:50:35.341Z,97444.13
2022-12-27T05:53:03.601Z,97450.00
2022-12-27T05:55:31.841Z,97450.19
2022-12-27T05:58:00.130Z,97459.38
2022-12-27T06:00:29.715Z,97458.72
2022-12-27T06:02:58.270Z,97456.63
2022-12-27T06:05:26.721Z,97454.31
2022-12-27T06:07:55.118Z,97465.16
2022-12-27T06:10:23.394Z,97466.91
2022-12-27T06:12:51.739Z,97459.91
2022-12-27T06:15:20.001Z,97464.38
2022-12-27T06:17:49.603Z,97461.34
2022-12-27T06:20:18.507Z,97462.53
2022-12-27T06:22:47.116Z,97455.56
2022-12-27T06:25:15.497Z,97458.31
2022-12-27T06:27:43.810Z,97456.19
2022-12-27T06:30:13.381Z,97454.41
2022-12-27T06:32:41.655Z,97466.16
2022-12-27T06:35:11.802Z,97469.34
2022-12-27T06:37:40.068Z,97471.38
2022-12-27T06:40:09.356Z,97474.28
2022-12-27T06:42:37.647Z,97473.97
2022-12-27T06:45:09.358Z,97476.72
2022-12-27T06:47:37.706Z,97480.19
2022-12-27T06:50:06.736Z,97481.69
2022-12-27T06:52:36.385Z,97484.44
2022-12-27T06:55:05.010Z,97485.09
2022-12-27T06:57:33.669Z,97479.75
2022-12-27T07:00:02.003Z,97477.09
2022-12-27T07:02:30.332Z,97483.72
2022-12-27T07:04:58.673Z,97472.88
2022-12-27T07:07:27.111Z,97474.50
2022-12-27T07:09:56.775Z,97475.53
2022-12-27T07:12:25.125Z,97484.59
2022-12-27T07:14:53.415Z,97494.25
2022-12-27T07:17:21.705Z,97489.63
2022-12-27T07:19:49.993Z,97491.13
2022-12-27T07:22:18.284Z,97490.81
2022-12-27T07:24:46.662Z,97499.06
2022-12-27T07:27:16.354Z,97496.63
2022-12-27T07:29:45.834Z,97506.09
2022-12-27T07:32:14.296Z,97498.47
2022-12-27T07:34:42.609Z,97510.13
2022-12-27T07:37:10.959Z,97508.41
2022-12-27T07:39:39.212Z,97507.84
2022-12-27T07:42:08.620Z,97512.63
2022-12-27T07:44:38.677Z,97503.25
2022-12-27T07:47:07.772Z,97502.19
2022-12-27T07:49:36.207Z,97505.84
2022-12-27T07:52:04.580Z,97500.56
2022-12-27T07:54:32.905Z,97501.97
2022-12-27T07:57:01.212Z,97511.28
2022-12-27T07:59:29.510Z,97503.75
2022-12-27T08:02:08.100Z,97510.34
2022-12-27T08:04:38.430Z,97503.91
2022-12-27T08:07:08.516Z,97504.88
2022-12-27T08:09:38.357Z,97505.25
2022-12-27T08:12:07.776Z,97507.91
2022-12-27T08:14:36.064Z,97510.13
2022-12-27T08:17:08.506Z,97509.16
2022-12-27T08:19:36.962Z,97519.88
2022-12-27T08:22:06.268Z,97518.59
2022-12-27T08:24:34.608Z,97511.22
2022-12-27T08:27:03.047Z,97514.81
2022-12-27T08:29:31.606Z,97512.50
2022-12-27T08:31:59.994Z,97508.44
2022-12-27T08:34:29.603Z,97506.13
2022-12-27T08:36:57.928Z,97510.41
2022-12-27T08:39:26.319Z,97514.63
2022-12-27T08:41:54.938Z,97516.19
2022-12-27T08:44:23.741Z,97509.47
2022-12-27T08:46:52.200Z,97513.75
2022-12-27T08:49:20.515Z,97528.41
2022-12-27T08:51:51.397Z,97525.00
2022-12-27T08:54:19.623Z,97528.34
2022-12-27T08:56:47.975Z,97538.88
2022-12-27T08:59:16.309Z,97534.22
2022-12-27T09:01:44.711Z,97541.25
2022-12-27T09:04:13.033Z,97538.16
2022-12-27T09:06:42.180Z,97532.75
2022-12-27T09:09:11.884Z,97536.38
2022-12-27T09:11:40.224Z,97542.25
2022-12-27T09:14:08.506Z,97536.28
2022-12-27T09:16:36.825Z,97531.97
2022-12-27T09:19:05.238Z,97533.41
2022-12-27T09:21:34.875Z,97534.47
2022-12-27T09:24:04.091Z,97538.66
2022-12-27T09:26:33.844Z,97550.91
2022-12-27T09:29:02.229Z,97560.16
2022-12-27T09:31:30.718Z,97553.44
2022-12-27T09:33:59.531Z,97553.56
2022-12-27T09:36:29.115Z,97558.09
2022-12-27T09:38:59.004Z,97557.41
2022-12-27T09:44:31.950Z,97553.53
2022-12-27T09:47:05.413Z,97555.25
2022-12-27T09:49:38.525Z,97540.94
2022-12-27T09:52:11.577Z,97543.69
2022-12-27T09:54:52.269Z,97538.44
2022-12-27T09:57:24.116Z,97541.44
2022-12-27T09:59:56.676Z,97536.66
2022-12-27T10:02:25.924Z,97530.66
2022-12-27T10:07:50.963Z,97534.00
2022-12-27T10:10:26.300Z,97524.66
2022-12-27T10:13:09.913Z,97526.44
2022-12-27T10:15:44.038Z,97521.53
2022-12-27T10:18:19.825Z,97523.06
2022-12-27T10:20:56.656Z,97521.78
2022-12-27T10:23:26.456Z,97501.84
2022-12-27T10:26:00.330Z,97498.59
2022-12-27T10:28:37.800Z,97498.34
2022-12-27T10:31:06.601Z,97509.41
2022-12-27T10:33:35.404Z,97512.66
2022-12-27T10:36:10.707Z,97492.81
2022-12-27T10:38:38.928Z,97512.03
2022-12-27T10:41:20.053Z,97507.63
2022-12-27T10:43:52.689Z,97506.63
2022-12-27T10:46:26.323Z,97509.09
2022-12-27T10:51:50.131Z,97502.38
2022-12-27T10:54:22.228Z,97503.69
2022-12-27T10:56:50.773Z,97502.34
2022-12-27T10:59:21.892Z,97508.81
2022-12-27T11:01:51.970Z,97500.25
2022-12-27T11:04:21.956Z,97507.44
2022-12-27T11:06:52.622Z,97492.63
2022-12-27T11:09:31.004Z,97494.97
2022-12-27T11:12:18.766Z,97496.78
2022-12-27T11:14:59.302Z,97496.38
2022-12-27T11:17:30.730Z,97500.03
2022-12-27T11:20:00.146Z,97491.78
2022-12-27T11:22:28.443Z,97491.56
2022-12-27T11:24:58.425Z,97496.72
2022-12-27T11:27:28.643Z,97486.34
2022-12-27T11:30:00.232Z,97496.78
2022-12-27T11:32:28.614Z,97496.56
2022-12-27T11:34:57.477Z,97487.38
2022-12-27T11:37:27.407Z,97483.28
2022-12-27T11:39:56.699Z,97482.03
2022-12-27T11:42:32.479Z,97475.00
2022-12-27T11:45:07.159Z,97482.34
2022-12-27T11:47:40.421Z,97471.41
2022-12-27T11:50:26.381Z,97480.53
2022-12-27T11:53:18.143Z,97482.63
2022-12-27T11:56:20.557Z,97479.09
2022-12-27T11:59:11.407Z,97470.69
2022-12-27T12:02:08.889Z,97472.38
2022-12-27T12:05:04.876Z,97467.28
2022-12-27T12:07:48.812Z,97461.34
2022-12-27T12:10:25.863Z,97457.97
2022-12-27T12:13:11.179Z,97447.63
2022-12-27T12:15:50.288Z,97452.47
2022-12-27T12:18:35.417Z,97458.88
2022-12-27T12:21:22.310Z,97449.28
2022-12-27T12:24:25.803Z,97448.59
2022-12-27T12:27:06.827Z,97449.22
2022-12-27T12:29:47.443Z,97446.69
2022-12-27T12:32:25.887Z,97441.97
2022-12-27T12:35:16.382Z,97447.31
2022-12-27T12:38:03.684Z,97448.28
2022-12-27T12:40:53.568Z,97448.59
2022-12-27T12:43:36.156Z,97443.47
2022-12-27T12:46:15.022Z,97435.84
2022-12-27T12:49:05.458Z,97440.09
2022-12-27T12:52:01.568Z,97450.72
2022-12-27T12:54:48.369Z,97451.66
2022-12-27T12:57:27.038Z,97443.34
2022-12-27T13:00:08.944Z,97443.72
2022-12-27T13:03:13.474Z,97443.13
2022-12-27T13:05:47.069Z,97441.81
2022-12-27T13:08:24.458Z,97430.13
2022-12-27T13:11:14.417Z,97433.00
2022-12-27T13:13:55.310Z,97433.91
2022-12-27T13:16:29.258Z,97436.63
2022-12-27T13:19:07.215Z,97432.00
2022-12-27T13:21:52.476Z,97437.00
2022-12-27T13:24:30.067Z,97427.78
2022-12-27T13:27:03.618Z,97426.19
2022-12-27T13:29:59.241Z,97429.22
2022-12-27T13:32:41.973Z,97415.53
2022-12-27T13:35:25.582Z,97416.63
2022-12-27T13:38:02.777Z,97413.97
2022-12-27T13:40:47.400Z,97406.13
2022-12-27T13:43:37.729Z,97404.97
2022-12-27T13:46:17.503Z,97399.94
2022-12-27T13:48:57.244Z,97392.06
2022-12-27T13:51:42.411Z,97398.84
2022-12-27T13:54:46.238Z,97404.81
2022-12-27T13:57:27.742Z,97410.19
2022-12-27T14:00:09.068Z,97401.25
2022-12-27T14:02:52.372Z,97402.09
2022-12-27T14:06:01.935Z,97403.06
2022-12-27T14:08:41.914Z,97397.94
2022-12-27T14:11:23.052Z,97404.13
2022-12-27T14:13:52.888Z,97402.06
2022-12-27T14:16:29.945Z,97405.84
2022-12-27T14:19:10.458Z,97410.47
2022-12-27T14:21:59.434Z,97414.00
2022-12-27T14:24:46.489Z,97416.88
2022-12-27T14:28:04.693Z,97421.88
2022-12-27T14:30:52.425Z,97416.25
2022-12-27T14:33:56.505Z,97426.84
2022-12-27T14:36:39.456Z,97418.56
2022-12-27T14:39:39.333Z,97419.97
2022-12-27T14:43:02.651Z,97429.78
2022-12-27T14:45:57.673Z,97430.84
2022-12-27T14:48:53.095Z,97433.78
2022-12-27T14:52:00.344Z,97435.03
2022-12-27T14:55:12.722Z,97430.28
2022-12-27T14:57:48.772Z,97440.31
2022-12-27T15:00:18.664Z,97437.34
2022-12-27T15:03:03.966Z,97436.31
2022-12-27T15:05:46.765Z,97441.84
2022-12-27T15:08:35.080Z,97441.06
2022-12-27T15:11:20.243Z,97434.09
2022-12-27T15:14:01.101Z,97435.59
2022-12-27T15:16:38.273Z,97436.72
2022-12-27T15:19:21.079Z,97434.72
2022-12-27T15:21:56.327Z,97440.25
2022-12-27T15:24:32.169Z,97439.16
2022-12-27T15:27:05.072Z,97437.28
2022-12-27T15:29:43.554Z,97445.69
2022-12-27T15:32:23.191Z,97441.75
2022-12-27T15:35:04.965Z,97450.88
2022-12-27T15:38:01.227Z,97441.28
2022-12-27T15:40:40.774Z,97439.16
2022-12-27T15:43:16.798Z,97440.97
2022-12-27T15:45:49.521Z,97440.84
2022-12-27T15:48:37.555Z,97446.38
2022-12-27T15:51:10.576Z,97444.91
2022-12-27T15:53:50.548Z,97451.84
2022-12-27T15:56:37.752Z,97447.72
2022-12-27T15:59:48.467Z,97452.34
2022-12-27T16:02:35.459Z,97439.31
2022-12-27T16:05:12.807Z,97432.59
2022-12-27T16:07:48.591Z,97436.16
2022-12-27T16:10:38.343Z,97430.03
2022-12-27T16:13:23.715Z,97430.34
2022-12-27T16:15:54.282Z,97434.41
2022-12-27T16:18:55.505Z,97435.44
2022-12-27T16:21:25.065Z,97423.19
2022-12-27T16:23:57.205Z,97423.13
2022-12-27T16:26:27.821Z,97424.28
2022-12-27T16:28:57.465Z,97430.47
2022-12-27T16:31:28.419Z,97430.78
2022-12-27T16:33:58.071Z,97431.91
2022-12-27T16:36:29.789Z,97425.84
2022-12-27T16:39:31.160Z,97421.84
2022-12-27T16:42:09.653Z,97425.84
2022-12-27T16:44:54.957Z,97423.84
2022-12-27T16:47:48.391Z,97435.09
2022-12-27T16:50:40.685Z,97426.06
2022-12-27T16:53:16.754Z,97419.13
2022-12-27T16:56:14.222Z,97423.75
2022-12-27T16:58:42.898Z,97422.06
2022-12-27T17:01:29.857Z,97429.00
2022-12-27T17:03:58.982Z,97415.56
2022-12-27T17:06:57.829Z,97414.75
2022-12-27T17:09:41.453Z,97406.09
2022-12-27T17:12:28.752Z,97401.59
2022-12-27T17:15:02.983Z,97402.31
2022-12-27T17:17:31.477Z,97400.31
2022-12-27T17:20:03.207Z,97403.56
2022-12-27T17:22:35.310Z,97396.81
2022-12-27T17:25:04.915Z,97396.06
2022-12-27T17:27:48.541Z,97397.94
2022-12-27T17:30:21.148Z,97398.28
2022-12-27T17:33:11.220Z,97398.00
2022-12-27T17:35:47.795Z,97406.75
2022-12-27T17:38:26.078Z,97410.53
2022-12-27T17:41:04.412Z,97401.44
2022-12-27T17:43:58.600Z,97395.72
2022-12-27T17:46:35.939Z,97397.81
2022-12-27T17:49:05.418Z,97391.06
2022-12-27T17:51:35.713Z,97389.84
2022-12-27T17:54:40.037Z,97394.22
2022-12-27T17:57:29.516Z,97377.94
2022-12-27T17:59:59.899Z,97389.69
2022-12-27T18:02:34.404Z,97383.28
2022-12-27T18:05:05.679Z,97386.75
2022-12-27T18:07:35.199Z,97377.81
2022-12-27T18:10:05.822Z,97378.69
2022-12-27T18:12:35.981Z,97388.38
2022-12-27T18:15:08.775Z,97383.22
2022-12-27T18:17:39.457Z,97371.97
2022-12-27T18:20:26.179Z,97371.66
2022-12-27T18:22:54.660Z,97361.25
2022-12-27T18:25:25.131Z,97361.59
2022-12-27T18:27:59.705Z,97356.94
2022-12-27T18:30:34.557Z,97361.25
2022-12-27T18:33:04.171Z,97358.97
2022-12-27T18:35:32.658Z,97356.00
2022-12-27T18:38:01.767Z,97361.75
2022-12-27T18:40:30.018Z,97367.63
2022-12-27T18:42:58.358Z,97358.63
2022-12-27T18:45:29.798Z,97363.97
2022-12-27T18:48:00.223Z,97363.56
2022-12-27T18:50:30.532Z,97361.97
2022-12-27T18:53:02.158Z,97347.50
2022-12-27T18:55:32.082Z,97349.91
2022-12-27T18:58:06.206Z,97340.31
2022-12-27T19:00:48.389Z,97343.81
2022-12-27T19:03:18.467Z,97348.97
2022-12-27T19:05:59.920Z,97344.34
2022-12-27T19:08:41.309Z,97346.03
2022-12-27T19:11:09.660Z,97345.69
2022-12-27T19:13:43.247Z,97348.53
2022-12-27T19:16:23.459Z,97348.31
2022-12-27T19:18:54.071Z,97344.88
2022-12-27T19:21:30.528Z,97348.13
2022-12-27T19:23:58.806Z,97343.38
2022-12-27T19:26:31.501Z,97347.06
2022-12-27T19:29:03.490Z,97340.16
2022-12-27T19:31:33.551Z,97336.78
2022-12-27T19:34:03.442Z,97328.38
2022-12-27T19:36:33.643Z,97327.13
2022-12-27T19:39:03.151Z,97333.31
2022-12-27T19:41:31.923Z,97325.78
2022-12-27T19:44:00.176Z,97328.50
2022-12-27T19:46:31.070Z,97335.09
2022-12-27T19:49:32.286Z,97341.19
2022-12-27T19:51:49.414Z,97332.28
2022-12-27T19:54:19.448Z,97328.19
2022-12-27T19:56:47.885Z,97326.41
2022-12-27T19:59:18.213Z,97316.00
2022-12-27T20:01:46.730Z,97324.19
2022-12-27T20:04:17.727Z,97323.34
2022-12-27T20:06:48.509Z,97334.69
2022-12-27T20:09:19.046Z,97330.38
2022-12-27T20:11:47.909Z,97320.06
2022-12-27T20:14:17.655Z,97318.94
2022-12-27T20:16:46.647Z,97318.75
2022-12-27T20:19:18.127Z,97322.84
2022-12-27T20:21:46.599Z,97314.53
2022-12-27T20:24:15.141Z,97312.94
2022-12-27T20:26:44.090Z,97309.06
2022-12-27T20:29:12.751Z,97310.88
2022-12-27T20:31:45.012Z,97310.13
2022-12-27T20:34:13.910Z,97311.38
2022-12-27T20:36:44.666Z,97313.69
2022-12-27T20:39:12.964Z,97313.03
2022-12-27T20:41:41.266Z,97317.25
2022-12-27T20:44:09.580Z,97312.34
2022-12-27T20:46:37.881Z,97318.09
2022-12-27T20:49:06.993Z,97328.69
2022-12-27T20:51:35.375Z,97330.56
2022-12-27T20:54:05.157Z,97327.56
2022-12-27T20:56:35.167Z,97320.66
2022-12-27T20:59:03.672Z,97317.59
2022-12-27T21:01:31.990Z,97309.72
2022-12-27T21:04:00.595Z,97310.56
2022-12-27T21:06:30.121Z,97310.75
2022-12-27T21:08:59.355Z,97310.75
2022-12-27T21:11:31.156Z,97296.63
2022-12-27T21:14:00.731Z,97295.97
2022-12-27T21:16:31.053Z,97293.34
2022-12-27T21:19:02.908Z,97291.75
2022-12-27T21:21:31.939Z,97276.09
2022-12-27T21:24:00.271Z,97278.53
2022-12-27T21:26:31.364Z,97282.94
2022-12-27T21:29:00.654Z,97272.31
2022-12-27T21:31:29.314Z,97274.84
2022-12-27T21:33:59.185Z,97282.16
2022-12-27T21:36:29.047Z,97277.88
2022-12-27T21:38:57.556Z,97275.72
2022-12-27T21:41:27.442Z,97274.13
2022-12-27T21:43:57.099Z,97269.63
2022-12-27T21:46:27.686Z,97278.03
2022-12-27T21:48:58.120Z,97272.78
2022-12-27T21:51:27.329Z,97283.25
2022-12-27T21:53:55.809Z,97275.59
2022-12-27T21:56:24.681Z,97277.69
2022-12-27T21:58:55.306Z,97274.19
2022-12-27T22:01:25.443Z,97270.09
2022-12-27T22:03:54.620Z,97266.16
2022-12-27T22:06:24.885Z,97272.13
2022-12-27T22:08:54.555Z,97257.50
2022-12-27T22:11:24.066Z,97255.91
2022-12-27T22:13:52.515Z,97248.69
2022-12-27T22:16:22.229Z,97253.28
2022-12-27T22:18:52.619Z,97253.09
2022-12-27T22:21:22.337Z,97246.38
2022-12-27T22:23:52.231Z,97241.59
2022-12-27T22:26:21.894Z,97240.00
2022-12-27T22:28:50.458Z,97238.31
2022-12-27T22:31:20.431Z,97242.63
2022-12-27T22:33:50.994Z,97245.56
2022-12-27T22:36:20.572Z,97252.66
2022-12-27T22:38:50.261Z,97258.09
2022-12-27T22:41:21.420Z,97249.06
2022-12-27T22:43:52.122Z,97249.47
2022-12-27T22:46:20.734Z,97247.13
2022-12-27T22:48:54.675Z,97247.53
2022-12-27T22:51:24.127Z,97250.97
2022-12-27T22:53:52.438Z,97245.84
2022-12-27T22:56:22.344Z,97247.16
2022-12-27T22:58:50.564Z,97248.34
2022-12-27T23:01:20.879Z,97250.13
2022-12-27T23:03:49.455Z,97238.69
2022-12-27T23:06:19.228Z,97242.59
2022-12-27T23:08:48.156Z,97232.91
2022-12-27T23:11:18.305Z,97229.72
2022-12-27T23:13:47.214Z,97227.75
2022-12-27T23:16:15.843Z,97227.75
2022-12-27T23:18:44.204Z,97229.50
2022-12-27T23:21:21.523Z,97227.28
2022-12-27T23:23:53.862Z,97214.56
2022-12-27T23:26:23.622Z,97222.06
2022-12-27T23:28:53.198Z,97218.03
2022-12-27T23:31:22.935Z,97220.75
2022-12-27T23:33:51.629Z,97222.44
2022-12-27T23:36:20.584Z,97219.69
2022-12-27T23:38:48.914Z,97220.84
2022-12-27T23:41:20.139Z,97221.13
2022-12-27T23:43:52.664Z,97219.72
2022-12-27T23:46:25.005Z,97219.84
2022-12-27T23:48:53.862Z,97213.00
2022-12-27T23:51:22.424Z,97216.56
2022-12-27T23:53:50.913Z,97207.03
2022-12-27T23:56:21.821Z,97212.25
2022-12-27T23:58:51.609Z,97211.38
